Time;durP1;ratioP1;P1;durP2;ratioP2;P2;SDS_P1;SDS_P2;PMS_P1;PMS_P2;Temp;Humidity;BMP_temperature;BMP_pressure;BME280_temperature;BME280_humidity;BME280_pressure;Samples;Min_cycle;Max_cycle;Signal;HPM_P1;HPM_P2
2022/12/23 00:02:01;;;;;;;29.13;13.70;;;;;;;9.43;100.00;100285.94;4990124;28;20031;-63
2022/12/23 00:04:26;;;;;;;28.10;14.10;;;;;;;9.43;100.00;100280.75;5011826;28;20037;-63
2022/12/23 00:06:52;;;;;;;27.98;14.65;;;;;;;9.43;100.00;100283.34;4998466;28;20085;-63
2022/12/23 00:09:17;;;;;;;30.00;14.45;;;;;;;9.42;100.00;100294.56;4992770;28;20035;-63
2022/12/23 00:15:04;;;;;;;33.45;15.00;;;;;;;9.43;100.00;100292.84;4996257;28;20018;-63
2022/12/23 00:17:11;;;;;;;30.70;15.45;;;;;;;9.43;100.00;100301.53;4987032;28;20105;-72
2022/12/23 00:19:37;;;;;;;29.27;16.17;;;;;;;9.42;100.00;100302.38;4996691;28;20018;-72
2022/12/23 00:22:02;;;;;;;28.77;16.05;;;;;;;9.42;100.00;100306.72;5000364;28;20018;-72
2022/12/23 00:24:27;;;;;;;32.10;16.45;;;;;;;9.43;100.00;100305.84;4998433;28;20032;-72
2022/12/23 00:26:52;;;;;;;33.28;16.40;;;;;;;9.42;100.00;100302.38;4993877;28;20026;-72
2022/12/23 00:29:18;;;;;;;31.58;16.50;;;;;;;9.44;100.00;100303.28;4996606;28;20158;-72
2022/12/23 00:31:43;;;;;;;31.33;16.52;;;;;;;9.44;100.00;100307.59;4994100;28;20070;-72
2022/12/23 00:34:10;;;;;;;36.72;17.33;;;;;;;9.43;100.00;100311.94;4987482;28;20281;-72
2022/12/23 00:36:37;;;;;;;35.35;17.73;;;;;;;9.46;100.00;100313.69;4996657;28;20057;-72
2022/12/23 00:44:30;;;;;;;34.58;17.08;;;;;;;9.46;100.00;100324.09;4992971;28;20022;-73
2022/12/23 00:46:56;;;;;;;32.22;17.50;;;;;;;9.46;100.00;100324.09;5003951;28;20030;-63
2022/12/23 00:52:09;;;;;;;38.45;17.08;;;;;;;9.45;100.00;100344.03;5009352;28;20034;-64
2022/12/23 00:54:35;;;;;;;33.28;16.73;;;;;;;9.45;100.00;100336.25;5006469;28;20034;-63
2022/12/23 00:57:00;;;;;;;38.40;16.92;;;;;;;9.45;100.00;100345.78;4988603;28;20022;-63
2022/12/23 00:59:26;;;;;;;31.80;16.35;;;;;;;9.44;100.00;100347.47;4991648;28;20040;-64
2022/12/23 01:07:20;;;;;;;34.10;15.68;;;;;;;9.44;100.00;100349.22;4992869;28;20064;-63
2022/12/23 01:09:45;;;;;;;33.50;16.10;;;;;;;9.44;100.00;100355.28;4994828;28;20136;-63
2022/12/23 01:12:11;;;;;;;33.30;15.75;;;;;;;9.45;100.00;100350.97;5004814;28;20045;-64
2022/12/23 01:14:36;;;;;;;32.85;15.65;;;;;;;9.45;100.00;100351.84;5005254;28;20216;-63
2022/12/23 01:17:02;;;;;;;28.60;15.48;;;;;;;9.44;100.00;100352.69;5003653;28;20026;-72
2022/12/23 01:19:27;;;;;;;36.17;16.70;;;;;;;9.44;100.00;100357.88;4994525;28;20245;-72
2022/12/23 01:21:53;;;;;;;32.17;16.25;;;;;;;9.43;100.00;100358.75;4999787;28;20033;-72
2022/12/23 01:24:18;;;;;;;33.22;15.90;;;;;;;9.43;100.00;100352.66;5002769;28;20010;-72
2022/12/23 01:26:43;;;;;;;32.78;15.48;;;;;;;9.43;100.00;100352.66;5007750;28;20018;-72
2022/12/23 01:29:09;;;;;;;30.60;15.40;;;;;;;9.44;100.00;100360.47;5003788;28;20029;-73
2022/12/23 01:31:34;;;;;;;33.67;14.85;;;;;;;9.43;100.00;100358.75;5016694;28;20316;-73
2022/12/23 01:33:59;;;;;;;35.65;15.85;;;;;;;9.45;100.00;100367.44;5007479;28;20037;-72
2022/12/23 01:36:25;;;;;;;36.63;16.25;;;;;;;9.45;100.00;100363.97;5007824;28;20065;-73
2022/12/23 01:38:50;;;;;;;37.45;16.67;;;;;;;9.44;100.00;100354.41;4999816;28;20042;-73
2022/12/23 01:44:43;;;;;;;36.58;17.38;;;;;;;9.42;100.00;100362.19;4994714;28;20018;-72
2022/12/23 01:47:12;;;;;;;35.80;16.88;;;;;;;9.41;100.00;100360.41;5000930;28;20093;-72
2022/12/23 01:49:39;;;;;;;34.25;16.38;;;;;;;9.39;100.00;100367.31;4995506;28;20097;-72
2022/12/23 01:52:04;;;;;;;31.90;15.73;;;;;;;9.39;100.00;100373.41;4997945;28;20022;-72
2022/12/23 01:54:30;;;;;;;36.53;17.35;;;;;;;9.39;100.00;100376.00;4989846;28;20098;-72
2022/12/23 01:56:57;;;;;;;34.85;16.48;;;;;;;9.39;100.00;100378.59;4994774;28;20089;-72
2022/12/23 02:04:51;;;;;;;35.13;16.65;;;;;;;9.38;100.00;100389.88;5000212;28;20084;-72
2022/12/23 02:10:03;;;;;;;30.05;16.23;;;;;;;9.37;100.00;100401.09;5002579;28;20141;-72
2022/12/23 02:12:46;;;;;;;32.60;16.40;;;;;;;9.39;100.00;100398.53;5002762;28;20022;-72
2022/12/23 02:18:39;;;;;;;34.10;16.38;;;;;;;9.39;100.00;100406.34;4995334;28;20037;-72
2022/12/23 02:21:12;;;;;;;35.30;16.17;;;;;;;9.39;100.00;100404.59;4992962;28;20039;-73
2022/12/23 02:23:55;;;;;;;32.75;16.23;;;;;;;9.39;100.00;100399.41;4998146;28;20024;-72
2022/12/23 02:26:39;;;;;;;34.75;17.42;;;;;;;9.40;100.00;100393.38;4991770;28;20296;-73
2022/12/23 02:29:18;;;;;;;34.28;16.38;;;;;;;9.40;100.00;100405.50;5006339;28;20160;-72
2022/12/23 02:32:07;;;;;;;29.67;15.50;;;;;;;9.39;100.00;100415.00;5003698;28;20029;-72
2022/12/23 02:34:54;;;;;;;31.65;15.95;;;;;;;9.41;100.00;100422.81;5002013;28;20311;-73
2022/12/23 02:37:29;;;;;;;29.95;15.25;;;;;;;9.38;100.00;100423.66;4995333;28;20080;-72
2022/12/23 02:40:01;;;;;;;29.45;14.82;;;;;;;9.38;100.00;100427.97;4994084;28;20030;-72
2022/12/23 02:42:37;;;;;;;31.85;15.45;;;;;;;9.38;100.00;100436.66;4998349;28;20023;-72
2022/12/23 02:45:18;;;;;;;31.77;15.48;;;;;;;9.38;100.00;100443.56;5020562;28;20050;-72
2022/12/23 02:47:53;;;;;;;30.98;15.05;;;;;;;9.38;100.00;100453.97;4985218;28;20283;-63
2022/12/23 02:50:26;;;;;;;35.67;16.33;;;;;;;9.37;100.00;100462.59;5003448;28;20014;-64
2022/12/23 02:52:57;;;;;;;32.22;15.18;;;;;;;9.38;100.00;100464.38;5003478;28;20025;-63
2022/12/23 02:55:31;;;;;;;28.75;13.88;;;;;;;9.36;100.00;100461.75;5001822;28;20054;-64
2022/12/23 02:58:00;;;;;;;28.27;14.38;;;;;;;9.38;100.00;100469.56;4999948;28;20022;-64
2022/12/23 03:00:25;;;;;;;25.42;14.20;;;;;;;9.37;100.00;100467.81;5002319;28;20101;-63
2022/12/23 03:02:51;;;;;;;30.33;13.85;;;;;;;9.37;100.00;100460.00;5002313;28;20026;-63
2022/12/23 03:05:27;;;;;;;29.38;14.70;;;;;;;9.37;100.00;100455.72;4996215;28;20030;-64
2022/12/23 03:07:58;;;;;;;31.15;14.20;;;;;;;9.36;100.00;100460.88;5003741;28;20023;-64
2022/12/23 03:10:46;;;;;;;30.38;14.20;;;;;;;9.37;100.00;100465.22;4997539;28;20133;-63
2022/12/23 03:13:33;;;;;;;30.67;14.10;;;;;;;9.37;100.00;100470.41;4993369;28;20042;-64
2022/12/23 03:16:21;;;;;;;26.60;13.05;;;;;;;9.35;100.00;100470.38;4996316;28;20524;-64
2022/12/23 03:18:58;;;;;;;26.55;13.00;;;;;;;9.35;100.00;100469.50;4995850;28;20256;-73
2022/12/23 03:21:37;;;;;;;26.08;13.38;;;;;;;9.34;100.00;100463.44;4995193;28;20034;-73
2022/12/23 03:24:06;;;;;;;24.57;12.50;;;;;;;9.32;100.00;100462.50;4991064;28;20033;-72
2022/12/23 03:26:48;;;;;;;26.48;13.20;;;;;;;9.33;100.00;100468.59;5000850;28;20025;-73
2022/12/23 03:29:19;;;;;;;31.50;13.68;;;;;;;9.31;100.00;100463.38;5000762;28;20025;-72
2022/12/23 03:31:46;;;;;;;26.13;13.13;;;;;;;9.32;100.00;100459.03;4989487;28;20025;-72
2022/12/23 03:34:16;;;;;;;31.15;13.77;;;;;;;9.32;100.00;100453.84;4999987;28;20030;-73
2022/12/23 03:36:47;;;;;;;25.58;12.80;;;;;;;9.32;100.00;100454.72;4996420;28;20026;-73
2022/12/23 03:39:18;;;;;;;28.42;13.52;;;;;;;9.32;100.00;100462.50;5000248;28;20034;-73
2022/12/23 03:41:51;;;;;;;31.55;14.05;;;;;;;9.32;100.00;100465.09;4999674;28;20082;-72
2022/12/23 03:44:26;;;;;;;31.48;13.85;;;;;;;9.33;100.00;100468.59;4999162;28;20030;-73
2022/12/23 03:47:01;;;;;;;34.17;14.57;;;;;;;9.32;100.00;100467.72;4997851;28;20034;-73
2022/12/23 03:49:33;;;;;;;30.27;14.25;;;;;;;9.31;100.00;100452.97;4998677;28;20045;-73
2022/12/23 03:52:04;;;;;;;30.35;13.85;;;;;;;9.32;100.00;100461.66;4993820;28;20022;-73
2022/12/23 03:54:38;;;;;;;32.70;14.07;;;;;;;9.31;100.00;100457.28;4993777;28;20027;-73
2022/12/23 03:57:06;;;;;;;26.38;12.68;;;;;;;9.30;100.00;100461.63;4999249;28;20022;-73
2022/12/23 03:59:35;;;;;;;29.50;13.60;;;;;;;9.29;100.00;100465.03;5004210;28;20049;-73
2022/12/23 04:02:32;;;;;;;32.30;13.98;;;;;;;9.29;100.00;100461.56;4994254;28;20027;-73
2022/12/23 04:05:26;;;;;;;27.83;13.43;;;;;;;9.30;100.00;100476.31;5002890;28;20037;-73
2022/12/23 04:07:59;;;;;;;30.55;13.73;;;;;;;9.29;100.00;100479.78;4995285;28;20045;-73
2022/12/23 04:10:25;;;;;;;30.10;14.85;;;;;;;9.28;100.00;100478.00;5001066;28;20184;-72
2022/12/23 04:12:51;;;;;;;31.00;15.13;;;;;;;9.28;100.00;100478.00;4999304;28;20026;-73
2022/12/23 04:15:22;;;;;;;28.05;14.45;;;;;;;9.27;100.00;100484.03;4992949;28;20268;-73
2022/12/23 04:17:48;;;;;;;33.92;15.45;;;;;;;9.25;100.00;100476.22;5001857;28;20022;-63
2022/12/23 04:20:14;;;;;;;31.08;14.07;;;;;;;9.24;100.00;100477.09;4994680;28;20033;-64
2022/12/23 04:22:42;;;;;;;29.77;14.45;;;;;;;9.25;100.00;100484.00;4991281;28;20173;-63
2022/12/23 04:25:08;;;;;;;32.90;15.07;;;;;;;9.26;100.00;100495.31;4995996;28;20009;-63
2022/12/23 04:27:33;;;;;;;31.15;14.57;;;;;;;9.25;100.00;100498.75;4996903;28;20026;-63
2022/12/23 04:29:59;;;;;;;29.98;14.90;;;;;;;9.27;100.00;100502.25;4994586;28;20018;-63
2022/12/23 04:32:25;;;;;;;30.55;14.95;;;;;;;9.27;100.00;100507.44;4994370;28;20073;-63
2022/12/23 04:34:51;;;;;;;30.52;14.52;;;;;;;9.26;100.00;100511.78;4997798;28;20221;-64
2022/12/23 04:37:16;;;;;;;34.00;15.38;;;;;;;9.26;100.00;100511.78;5003713;28;20033;-63
2022/12/23 04:39:41;;;;;;;32.85;15.35;;;;;;;9.25;100.00;100514.34;4997710;28;20081;-64
2022/12/23 04:42:06;;;;;;;32.40;14.40;;;;;;;9.25;100.00;100503.94;4993735;28;20018;-63
2022/12/23 04:44:32;;;;;;;31.50;14.10;;;;;;;9.24;100.00;100500.47;4995268;28;20229;-63
2022/12/23 04:46:57;;;;;;;31.48;14.65;;;;;;;9.23;100.00;100509.09;5007361;28;20038;-63
2022/12/23 04:49:22;;;;;;;32.38;15.63;;;;;;;9.21;100.00;100493.47;5004661;28;20075;-63
2022/12/23 04:51:47;;;;;;;32.47;14.57;;;;;;;9.22;100.00;100492.63;5003824;28;20035;-63
2022/12/23 04:54:13;;;;;;;32.92;15.55;;;;;;;9.21;100.00;100487.38;4992809;28;20269;-63
2022/12/23 04:56:38;;;;;;;35.35;15.40;;;;;;;9.20;100.00;100483.03;5002531;28;20030;-63
2022/12/23 04:59:03;;;;;;;32.90;15.48;;;;;;;9.19;100.00;100474.34;4994023;28;20018;-63
2022/12/23 05:01:29;;;;;;;33.90;15.20;;;;;;;9.18;100.00;100477.81;5000497;28;20014;-64
2022/12/23 05:03:54;;;;;;;34.72;15.88;;;;;;;9.18;100.00;100470.00;4991159;28;20096;-63
2022/12/23 05:06:19;;;;;;;31.67;15.32;;;;;;;9.20;100.00;100483.03;5003582;28;20022;-64
2022/12/23 05:08:45;;;;;;;35.53;15.82;;;;;;;9.20;100.00;100473.50;5000744;28;20093;-63
2022/12/23 05:11:10;;;;;;;32.63;15.32;;;;;;;9.17;100.00;100477.78;4988374;28;20022;-63
2022/12/23 05:13:35;;;;;;;30.77;13.85;;;;;;;9.17;100.00;100477.78;5002300;28;20045;-63
2022/12/23 05:16:01;;;;;;;32.10;15.68;;;;;;;9.16;100.00;100484.69;4988412;28;20038;-63
2022/12/23 05:18:26;;;;;;;29.65;13.45;;;;;;;9.16;100.00;100494.22;4990374;28;20042;-72
2022/12/23 05:20:52;;;;;;;31.80;14.30;;;;;;;9.14;100.00;100496.78;4988599;28;20465;-72
2022/12/23 05:23:17;;;;;;;28.90;13.52;;;;;;;9.14;100.00;100501.97;5001514;28;20029;-72
2022/12/23 05:25:42;;;;;;;27.02;12.77;;;;;;;9.15;100.00;100519.34;4996308;28;20336;-72
2022/12/23 05:28:08;;;;;;;31.70;13.77;;;;;;;9.14;100.00;100517.56;5008716;28;20029;-72
2022/12/23 05:30:34;;;;;;;27.13;13.30;;;;;;;9.14;100.00;100517.56;4995911;28;20269;-72
2022/12/23 05:32:59;;;;;;;28.05;12.90;;;;;;;9.14;100.00;100534.84;5002493;28;20085;-72
2022/12/23 05:35:25;;;;;;;31.00;13.75;;;;;;;9.13;100.00;100526.19;5001145;28;20328;-72
2022/12/23 05:37:51;;;;;;;31.05;13.70;;;;;;;9.14;100.00;100529.66;4990375;28;20022;-72
2022/12/23 05:40:16;;;;;;;27.25;13.07;;;;;;;9.14;100.00;100527.97;5002281;28;20033;-72
2022/12/23 05:42:42;;;;;;;31.17;13.63;;;;;;;9.14;100.00;100537.47;4989383;28;20038;-72
2022/12/23 05:45:07;;;;;;;29.42;13.05;;;;;;;9.14;100.00;100542.66;4990305;28;20034;-72
2022/12/23 05:47:33;;;;;;;29.70;13.52;;;;;;;9.14;100.00;100545.25;4995114;28;20297;-63
2022/12/23 05:49:58;;;;;;;29.88;13.20;;;;;;;9.16;100.00;100541.00;5006517;28;20026;-63
2022/12/23 05:52:23;;;;;;;30.08;13.85;;;;;;;9.15;100.00;100539.22;4993158;28;20053;-63
2022/12/23 05:54:49;;;;;;;33.40;14.68;;;;;;;9.16;100.00;100534.06;5004417;28;20025;-63
2022/12/23 05:57:14;;;;;;;35.70;14.13;;;;;;;9.17;100.00;100530.63;4999401;28;20028;-63
2022/12/23 05:59:39;;;;;;;29.83;14.00;;;;;;;9.17;100.00;100533.22;4996383;28;20033;-63
2022/12/23 06:02:05;;;;;;;32.85;14.10;;;;;;;9.17;100.00;100522.84;4992319;28;20038;-63
2022/12/23 06:04:30;;;;;;;31.98;14.02;;;;;;;9.18;100.00;100519.41;5000806;28;20022;-63
2022/12/23 06:06:55;;;;;;;35.20;14.43;;;;;;;9.19;100.00;100509.88;5005479;28;20021;-64
2022/12/23 06:09:21;;;;;;;31.75;14.45;;;;;;;9.19;100.00;100504.66;4999716;28;20121;-63
2022/12/23 06:11:46;;;;;;;32.58;15.27;;;;;;;9.18;100.00;100495.09;4993592;28;20094;-63
2022/12/23 06:14:11;;;;;;;31.48;15.07;;;;;;;9.17;100.00;100499.44;5001409;28;20026;-63
2022/12/23 06:16:37;;;;;;;31.58;14.40;;;;;;;9.17;100.00;100502.03;5001026;28;20014;-63
2022/12/23 06:19:02;;;;;;;32.30;14.75;;;;;;;9.18;100.00;100495.09;4998999;28;20014;-63
2022/12/23 06:21:27;;;;;;;35.25;15.88;;;;;;;9.18;100.00;100490.81;4997440;28;20045;-63
2022/12/23 06:23:53;;;;;;;34.75;15.32;;;;;;;9.20;100.00;100490.84;4991540;28;20019;-63
2022/12/23 06:26:18;;;;;;;39.08;17.00;;;;;;;9.19;100.00;100491.69;5000437;28;20077;-72
2022/12/23 06:28:43;;;;;;;38.50;17.15;;;;;;;9.19;100.00;100495.13;5002841;28;20158;-72
2022/12/23 06:31:09;;;;;;;35.80;16.45;;;;;;;9.20;100.00;100490.84;4989593;28;20039;-71
2022/12/23 06:33:34;;;;;;;37.63;15.77;;;;;;;9.20;100.00;100494.31;5010329;28;20038;-72
2022/12/23 06:35:59;;;;;;;38.92;16.90;;;;;;;9.20;100.00;100499.50;4994086;28;20269;-72
2022/12/23 06:38:25;;;;;;;40.20;17.95;;;;;;;9.18;100.00;100503.81;4991902;28;20046;-72
2022/12/23 06:40:50;;;;;;;36.88;16.55;;;;;;;9.19;100.00;100504.66;4995213;28;20018;-72
2022/12/23 06:43:15;;;;;;;41.10;17.27;;;;;;;9.20;100.00;100506.44;4995089;28;20078;-72
2022/12/23 06:45:45;;;;;;;39.22;18.98;;;;;;;9.20;100.00;100507.31;4998299;28;20027;-72
2022/12/23 06:48:11;;;;;;;37.08;17.02;;;;;;;9.21;100.00;100513.38;5004000;28;20026;-72
2022/12/23 06:50:37;;;;;;;40.33;19.00;;;;;;;9.21;100.00;100515.97;5003087;28;21267;-72
2022/12/23 06:53:02;;;;;;;39.47;17.77;;;;;;;9.20;100.00;100522.91;4989575;28;20025;-72
2022/12/23 06:55:27;;;;;;;40.92;18.92;;;;;;;9.21;100.00;100531.56;4988767;28;20177;-72
2022/12/23 06:57:53;;;;;;;45.20;18.90;;;;;;;9.21;100.00;100535.06;5006812;28;20045;-63
2022/12/23 07:00:19;;;;;;;43.17;18.73;;;;;;;9.20;100.00;100559.31;5004622;28;20010;-63
2022/12/23 07:02:44;;;;;;;41.08;19.38;;;;;;;9.20;100.00;100566.22;4998534;28;20021;-63
2022/12/23 07:05:09;;;;;;;47.85;20.08;;;;;;;9.18;100.00;100561.00;4995311;28;20037;-63
2022/12/23 07:07:34;;;;;;;43.85;19.60;;;;;;;9.18;100.00;100574.00;4996663;28;20030;-63
2022/12/23 07:10:00;;;;;;;50.17;21.25;;;;;;;9.18;100.00;100580.88;4988266;28;20022;-63
2022/12/23 07:12:25;;;;;;;49.05;21.70;;;;;;;9.17;100.00;100585.22;4992003;28;20023;-63
2022/12/23 07:14:50;;;;;;;45.90;20.55;;;;;;;9.18;100.00;100576.59;4985078;28;20037;-64
2022/12/23 07:17:16;;;;;;;52.03;21.00;;;;;;;9.17;100.00;100556.63;4985671;28;20049;-63
2022/12/23 07:19:41;;;;;;;47.28;20.95;;;;;;;9.19;100.00;100556.66;4991350;28;20022;-63
2022/12/23 07:22:09;;;;;;;48.17;20.80;;;;;;;9.18;100.00;100545.41;5004984;28;20185;-63
2022/12/23 07:24:34;;;;;;;46.63;21.02;;;;;;;9.17;100.00;100546.22;4998522;28;20029;-63
2022/12/23 07:27:00;;;;;;;47.65;21.13;;;;;;;9.19;100.00;100541.06;4994990;28;20022;-63
2022/12/23 07:29:25;;;;;;;50.40;21.15;;;;;;;9.19;100.00;100552.34;4995646;28;20069;-63
2022/12/23 07:31:51;;;;;;;49.40;21.25;;;;;;;9.18;100.00;100553.19;5005399;28;20253;-63
2022/12/23 07:34:17;;;;;;;50.90;22.88;;;;;;;9.19;100.00;100556.66;4992052;28;20049;-63
2022/12/23 07:36:42;;;;;;;47.22;21.27;;;;;;;9.20;100.00;100554.09;5000314;28;20210;-63
2022/12/23 07:39:07;;;;;;;48.60;21.15;;;;;;;9.20;100.00;100546.31;4992811;28;20030;-63
2022/12/23 07:41:33;;;;;;;51.55;22.73;;;;;;;9.20;100.00;100548.03;4992563;28;20026;-63
2022/12/23 07:43:58;;;;;;;48.03;20.90;;;;;;;9.18;100.00;100539.31;5000746;28;20029;-63
2022/12/23 07:46:23;;;;;;;48.55;21.13;;;;;;;9.17;100.00;100541.03;4993261;28;20108;-64
2022/12/23 07:48:48;;;;;;;50.20;21.50;;;;;;;9.17;100.00;100537.56;5005471;28;20020;-63
2022/12/23 07:51:14;;;;;;;48.28;20.73;;;;;;;9.16;100.00;100547.06;5006185;28;20053;-63
2022/12/23 07:53:39;;;;;;;50.40;21.15;;;;;;;9.16;100.00;100538.41;5003747;28;20029;-63
2022/12/23 07:56:05;;;;;;;51.55;20.95;;;;;;;9.17;100.00;100547.97;5003058;28;20030;-63
2022/12/23 07:58:30;;;;;;;48.75;21.77;;;;;;;9.17;100.00;100535.84;4989102;28;21394;-63
2022/12/23 08:01:04;;;;;;;54.10;20.27;;;;;;;9.17;100.00;100537.56;4989036;28;20029;-63
2022/12/23 08:03:29;;;;;;;56.10;21.67;;;;;;;9.14;100.00;100548.75;4990408;28;20060;-63
2022/12/23 08:06:02;;;;;;;53.75;22.08;;;;;;;9.15;100.00;100539.22;5000640;28;20083;-63
2022/12/23 08:08:27;;;;;;;122.05;48.08;;;;;;;9.15;100.00;100534.94;4986790;28;20165;-63
2022/12/23 08:11:01;;;;;;;158.98;61.58;;;;;;;9.14;100.00;100522.75;4984863;28;20101;-63
2022/12/23 08:13:26;;;;;;;189.38;78.60;;;;;;;9.13;100.00;100520.13;4984811;28;20041;-63
2022/12/23 08:15:56;;;;;;;62.88;27.52;;;;;;;9.13;100.00;100533.13;4984764;28;20038;-63
2022/12/23 08:18:21;;;;;;;97.60;49.60;;;;;;;9.12;100.00;100527.03;4986524;28;20220;-63
2022/12/23 08:21:01;;;;;;;51.65;23.23;;;;;;;9.12;100.00;100516.63;4989536;28;20026;-64
2022/12/23 08:23:28;;;;;;;47.65;21.00;;;;;;;9.11;100.00;100530.50;4988119;28;20098;-63
2022/12/23 08:26:13;;;;;;;52.58;21.42;;;;;;;9.12;100.00;100523.56;4992768;28;20019;-63
2022/12/23 08:28:39;;;;;;;46.92;19.52;;;;;;;9.10;100.00;100531.31;4990422;28;20026;-72
2022/12/23 08:31:07;;;;;;;47.33;19.50;;;;;;;9.10;100.00;100535.66;4985029;28;20037;-72
2022/12/23 08:33:33;;;;;;;47.08;19.33;;;;;;;9.10;100.00;100520.94;4987989;28;20061;-72
2022/12/23 08:35:59;;;;;;;38.65;17.45;;;;;;;9.08;100.00;100522.63;4990821;28;20098;-72
2022/12/23 08:38:24;;;;;;;45.70;17.73;;;;;;;9.07;100.00;100531.25;4986924;28;20047;-72
2022/12/23 08:40:49;;;;;;;44.20;17.60;;;;;;;9.07;100.00;100533.84;4983616;28;20069;-71
2022/12/23 08:43:14;;;;;;;38.55;16.13;;;;;;;9.07;100.00;100520.84;4984842;28;20036;-71
2022/12/23 08:45:40;;;;;;;38.42;16.52;;;;;;;9.06;100.00;100513.88;4986844;28;20048;-72
2022/12/23 08:48:05;;;;;;;42.05;16.10;;;;;;;9.04;100.00;100515.59;4984548;28;20045;-72
2022/12/23 08:50:36;;;;;;;38.33;16.63;;;;;;;9.05;100.00;100512.13;4991059;28;20022;-72
2022/12/23 08:53:02;;;;;;;40.60;16.90;;;;;;;9.05;100.00;100509.53;4985577;28;20049;-72
2022/12/23 08:55:27;;;;;;;40.33;15.75;;;;;;;9.06;100.00;100503.50;4992842;28;20356;-72
2022/12/23 08:57:53;;;;;;;37.03;14.52;;;;;;;9.07;100.00;100497.47;4991777;28;20239;-72
2022/12/23 09:00:18;;;;;;;34.13;14.10;;;;;;;9.04;100.00;100495.66;4994642;28;20236;-72
2022/12/23 09:02:43;;;;;;;34.15;13.55;;;;;;;9.04;100.00;100495.66;4987588;28;20030;-72
2022/12/23 09:05:08;;;;;;;32.67;13.65;;;;;;;9.03;100.00;100491.31;4988954;28;20277;-72
2022/12/23 09:07:34;;;;;;;31.60;13.63;;;;;;;9.03;100.00;100493.91;4985164;28;20029;-71
2022/12/23 09:09:59;;;;;;;34.30;13.98;;;;;;;9.02;100.00;100479.16;4986716;28;20137;-71
2022/12/23 09:12:24;;;;;;;35.05;14.27;;;;;;;9.02;100.00;100486.06;4997408;28;20077;-72
2022/12/23 09:14:50;;;;;;;40.55;16.30;;;;;;;9.00;100.00;100475.63;4991032;28;20127;-71
2022/12/23 09:17:16;;;;;;;78.43;32.15;;;;;;;8.99;100.00;100470.41;4988320;28;20037;-72
2022/12/23 09:19:41;;;;;;;32.60;14.48;;;;;;;9.00;100.00;100469.56;4984404;28;20328;-72
2022/12/23 09:22:08;;;;;;;40.33;16.17;;;;;;;8.98;100.00;100453.03;5001130;28;20090;-71
2022/12/23 09:24:33;;;;;;;41.25;18.27;;;;;;;8.98;100.00;100450.44;5001351;28;20110;-71
2022/12/23 09:26:58;;;;;;;35.78;15.13;;;;;;;8.96;100.00;100455.63;4995803;28;20022;-63
2022/12/23 09:29:24;;;;;;;40.83;21.33;;;;;;;8.96;100.00;100452.16;4998182;28;20019;-63
2022/12/23 09:31:49;;;;;;;28.10;14.02;;;;;;;8.96;100.00;100454.75;4993072;28;20173;-63
2022/12/23 09:34:14;;;;;;;30.98;12.70;;;;;;;8.95;100.00;100446.09;4998859;28;20265;-63
2022/12/23 09:36:39;;;;;;;30.48;12.43;;;;;;;8.95;100.00;100442.59;4999483;28;20018;-63
2022/12/23 09:39:05;;;;;;;24.60;11.88;;;;;;;8.95;100.00;100447.78;4989145;28;20041;-63
2022/12/23 09:42:01;;;;;;;26.95;12.60;;;;;;;8.97;100.00;100451.31;4992969;28;20022;-63
2022/12/23 09:44:47;;;;;;;25.45;12.75;;;;;;;8.96;100.00;100444.34;4997944;28;20114;-63
2022/12/23 09:47:19;;;;;;;24.60;11.23;;;;;;;8.95;100.00;100442.59;4992045;28;20133;-63
2022/12/23 09:49:54;;;;;;;28.33;12.10;;;;;;;8.95;100.00;100440.88;5025969;28;20023;-63
2022/12/23 09:52:53;;;;;;;26.02;11.05;;;;;;;8.95;100.00;100422.69;4994166;28;20165;-63
2022/12/23 09:55:22;;;;;;;22.15;9.23;;;;;;;8.97;100.00;100423.59;4996499;28;20077;-63
2022/12/23 09:58:08;;;;;;;21.42;9.60;;;;;;;8.99;100.00;100423.63;4995633;28;20064;-72
2022/12/23 10:00:41;;;;;;;27.02;10.32;;;;;;;8.98;100.00;100419.28;4989077;28;20269;-72
2022/12/23 10:03:20;;;;;;;24.90;11.32;;;;;;;8.98;100.00;100427.97;4997137;28;20029;-72
2022/12/23 10:05:59;;;;;;;22.23;10.40;;;;;;;9.00;100.00;100433.19;5008022;28;20034;-72
2022/12/23 10:08:35;;;;;;;28.15;10.30;;;;;;;9.01;100.00;100441.03;4991512;28;20018;-72
2022/12/23 10:11:22;;;;;;;24.02;10.57;;;;;;;9.02;100.00;100434.09;5001894;28;20284;-71
2022/12/23 10:13:51;;;;;;;26.17;9.70;;;;;;;9.00;100.00;100421.06;4995845;28;20203;-72
2022/12/23 10:16:24;;;;;;;21.95;9.82;;;;;;;9.00;100.00;100413.28;5000657;28;20094;-71
2022/12/23 10:18:56;;;;;;;21.55;9.50;;;;;;;9.00;100.00;100399.41;4990862;28;20288;-72
2022/12/23 10:21:46;;;;;;;22.42;10.15;;;;;;;8.99;100.00;100403.75;4998752;28;20033;-71
2022/12/23 10:24:26;;;;;;;25.73;10.32;;;;;;;9.00;100.00;100395.06;5000550;28;20276;-71
2022/12/23 10:27:01;;;;;;;23.33;10.20;;;;;;;8.99;100.00;100392.44;4996763;28;20306;-72
2022/12/23 10:29:32;;;;;;;22.90;10.20;;;;;;;8.99;100.00;100379.47;4994556;28;20053;-71
2022/12/23 10:32:15;;;;;;;46.15;21.17;;;;;;;8.99;100.00;100374.25;5004397;28;20045;-72
2022/12/23 10:34:47;;;;;;;23.23;11.18;;;;;;;8.99;100.00;100379.47;4999800;28;20162;-72
2022/12/23 10:37:33;;;;;;;24.17;11.63;;;;;;;9.01;100.00;100362.19;4995358;28;20029;-71
2022/12/23 10:40:24;;;;;;;22.67;9.88;;;;;;;9.02;100.00;100361.34;5001565;28;20287;-71
2022/12/23 10:43:08;;;;;;;23.73;9.48;;;;;;;9.04;100.00;100367.47;4989684;28;20327;-71
2022/12/23 10:45:47;;;;;;;20.38;9.93;;;;;;;9.05;100.00;100353.59;4993697;28;20293;-71
2022/12/23 10:48:21;;;;;;;21.23;9.00;;;;;;;9.06;100.00;100352.75;4997411;28;20037;-71
2022/12/23 10:51:02;;;;;;;22.05;9.98;;;;;;;9.09;100.00;100341.56;5001012;28;20029;-72
2022/12/23 10:53:42;;;;;;;17.95;9.25;;;;;;;9.10;100.00;100333.78;4997856;28;20091;-72
2022/12/23 10:56:08;;;;;;;18.50;8.68;;;;;;;9.10;100.00;100332.94;4988112;28;20257;-72
2022/12/23 10:58:41;;;;;;;21.15;9.20;;;;;;;9.10;100.00;100326.00;4994540;28;20053;-72
2022/12/23 11:01:07;;;;;;;18.45;7.57;;;;;;;9.09;100.00;100316.44;4998416;28;20022;-71
2022/12/23 11:03:39;;;;;;;19.25;8.50;;;;;;;9.08;100.00;100309.50;4996048;28;20024;-71
2022/12/23 11:06:07;;;;;;;18.52;9.07;;;;;;;9.07;100.00;100305.16;4991038;28;20089;-71
2022/12/23 11:08:35;;;;;;;19.67;8.95;;;;;;;9.05;100.00;100294.72;5003042;28;20030;-71
2022/12/23 11:11:00;;;;;;;19.67;7.95;;;;;;;9.05;100.00;100288.63;5000711;28;20019;-71
2022/12/23 11:13:36;;;;;;;19.90;8.48;;;;;;;9.04;100.00;100289.50;5003207;28;20089;-74
2022/12/23 11:16:12;;;;;;;20.75;8.95;;;;;;;9.04;100.00;100287.75;4999760;28;20128;-74
2022/12/23 11:18:37;;;;;;;16.25;7.45;;;;;;;9.04;100.00;100290.34;5002749;28;20029;-74
2022/12/23 11:21:05;;;;;;;17.02;7.93;;;;;;;9.05;100.00;100283.44;5002783;28;20216;-74
2022/12/23 11:23:34;;;;;;;23.88;12.00;;;;;;;9.04;100.00;100285.16;4997795;28;20061;-75
2022/12/23 11:26:07;;;;;;;21.48;9.55;;;;;;;9.07;100.00;100286.06;4996260;28;20091;-75
2022/12/23 11:28:37;;;;;;;25.25;11.40;;;;;;;9.05;100.00;100286.94;4999837;28;20291;-66
2022/12/23 11:31:10;;;;;;;40.25;19.58;;;;;;;9.05;100.00;100273.03;4994449;28;20333;-66
2022/12/23 11:33:45;;;;;;;17.98;7.60;;;;;;;9.04;100.00;100269.56;5000230;28;20209;-66
2022/12/23 11:36:22;;;;;;;18.70;8.60;;;;;;;9.03;100.00;100259.16;4997571;28;20018;-66
2022/12/23 11:39:13;;;;;;;32.90;16.30;;;;;;;9.02;100.00;100258.28;4997969;28;20026;-66
2022/12/23 11:41:42;;;;;;;16.75;8.10;;;;;;;9.01;100.00;100246.13;4996759;28;20034;-66
2022/12/23 11:44:22;;;;;;;29.38;13.68;;;;;;;9.01;100.00;100243.53;5001416;28;20023;-66
2022/12/23 11:46:49;;;;;;;17.33;8.77;;;;;;;9.01;100.00;100234.88;4997131;28;20033;-66
2022/12/23 11:49:18;;;;;;;16.67;7.15;;;;;;;9.01;100.00;100224.47;4997763;28;20030;-66
2022/12/23 11:52:08;;;;;;;16.15;6.75;;;;;;;9.00;100.00;100226.16;5001726;28;20287;-66